sensor_id;sensor_type;location;lat;lon;timestamp;temperature;humidity
21092;DHT22;10704;42.678;23.288;2023-05-23T00:02:22;11.60;99.90
21092;DHT22;10704;42.678;23.288;2023-05-23T00:04:47;11.60;99.90
21092;DHT22;10704;42.678;23.288;2023-05-23T00:07:14;11.50;99.90
21092;DHT22;10704;42.678;23.288;2023-05-23T00:09:40;11.60;99.90
21092;DHT22;10704;42.678;23.288;2023-05-23T00:12:35;11.60;99.90
21092;DHT22;10704;42.678;23.288;2023-05-23T00:22:41;11.30;99.90
21092;DHT22;10704;42.678;23.288;2023-05-23T00:25:10;11.20;99.90
21092;DHT22;10704;42.678;23.288;2023-05-23T00:27:36;11.40;99.90
21092;DHT22;10704;42.678;23.288;2023-05-23T00:30:03;11.40;99.90
21092;DHT22;10704;42.678;23.288;2023-05-23T00:32:29;11.40;99.90
21092;DHT22;10704;42.678;23.288;2023-05-23T00:34:54;11.30;99.90
21092;DHT22;10704;42.678;23.288;2023-05-23T00:37:22;11.30;99.90
21092;DHT22;10704;42.678;23.288;2023-05-23T00:39:49;11.20;99.90
21092;DHT22;10704;42.678;23.288;2023-05-23T00:42:14;11.20;99.90
21092;DHT22;10704;42.678;23.288;2023-05-23T00:48:29;11.30;99.90
21092;DHT22;10704;42.678;23.288;2023-05-23T00:50:56;11.10;99.90
21092;DHT22;10704;42.678;23.288;2023-05-23T00:53:22;11.10;99.90
21092;DHT22;10704;42.678;23.288;2023-05-23T00:55:55;11.20;99.90
21092;DHT22;10704;42.678;23.288;2023-05-23T00:58:22;11.20;99.90
21092;DHT22;10704;42.678;23.288;2023-05-23T01:00:49;11.20;99.90
21092;DHT22;10704;42.678;23.288;2023-05-23T01:07:03;11.10;99.90
21092;DHT22;10704;42.678;23.288;2023-05-23T01:09:32;11.10;99.90
21092;DHT22;10704;42.678;23.288;2023-05-23T01:15:08;11.00;99.90
21092;DHT22;10704;42.678;23.288;2023-05-23T01:20:56;10.80;99.90
21092;DHT22;10704;42.678;23.288;2023-05-23T01:23:40;10.80;99.90
21092;DHT22;10704;42.678;23.288;2023-05-23T01:26:21;10.70;99.90
21092;DHT22;10704;42.678;23.288;2023-05-23T01:29:01;10.80;99.90
21092;DHT22;10704;42.678;23.288;2023-05-23T01:31:31;10.80;99.90
21092;DHT22;10704;42.678;23.288;2023-05-23T01:33:59;10.80;99.90
21092;DHT22;10704;42.678;23.288;2023-05-23T01:36:26;10.80;99.90
21092;DHT22;10704;42.678;23.288;2023-05-23T01:38:52;10.70;99.90
21092;DHT22;10704;42.678;23.288;2023-05-23T01:41:18;10.70;99.90
21092;DHT22;10704;42.678;23.288;2023-05-23T01:47:32;10.60;99.90
21092;DHT22;10704;42.678;23.288;2023-05-23T01:49:58;10.70;99.90
21092;DHT22;10704;42.678;23.288;2023-05-23T01:52:25;10.70;99.90
21092;DHT22;10704;42.678;23.288;2023-05-23T01:54:53;10.70;99.90
21092;DHT22;10704;42.678;23.288;2023-05-23T01:57:21;10.70;99.90
21092;DHT22;10704;42.678;23.288;2023-05-23T01:59:47;10.60;99.90
21092;DHT22;10704;42.678;23.288;2023-05-23T02:02:13;10.60;99.90
21092;DHT22;10704;42.678;23.288;2023-05-23T02:08:26;10.70;99.90
21092;DHT22;10704;42.678;23.288;2023-05-23T02:14:40;10.70;99.90
21092;DHT22;10704;42.678;23.288;2023-05-23T02:17:07;10.60;99.90
21092;DHT22;10704;42.678;23.288;2023-05-23T02:26:20;10.50;99.90
21092;DHT22;10704;42.678;23.288;2023-05-23T02:28:46;10.60;99.90
21092;DHT22;10704;42.678;23.288;2023-05-23T02:31:14;10.60;99.90
21092;DHT22;10704;42.678;23.288;2023-05-23T02:33:41;10.60;99.90
21092;DHT22;10704;42.678;23.288;2023-05-23T02:36:07;10.50;99.90
21092;DHT22;10704;42.678;23.288;2023-05-23T02:38:33;10.50;99.90
21092;DHT22;10704;42.678;23.288;2023-05-23T02:40:59;10.40;99.90
21092;DHT22;10704;42.678;23.288;2023-05-23T02:43:25;10.30;99.90
21092;DHT22;10704;42.678;23.288;2023-05-23T02:45:51;10.30;99.90
21092;DHT22;10704;42.678;23.288;2023-05-23T02:48:17;10.40;99.90
21092;DHT22;10704;42.678;23.288;2023-05-23T02:50:44;10.30;99.90
21092;DHT22;10704;42.678;23.288;2023-05-23T02:53:09;10.40;99.90
21092;DHT22;10704;42.678;23.288;2023-05-23T02:55:35;10.40;99.90
21092;DHT22;10704;42.678;23.288;2023-05-23T02:58:02;10.40;99.90
21092;DHT22;10704;42.678;23.288;2023-05-23T03:04:18;10.50;99.90
21092;DHT22;10704;42.678;23.288;2023-05-23T03:06:44;10.60;99.90
21092;DHT22;10704;42.678;23.288;2023-05-23T03:09:10;10.60;99.90
21092;DHT22;10704;42.678;23.288;2023-05-23T03:15:23;10.60;99.90
21092;DHT22;10704;42.678;23.288;2023-05-23T03:17:49;10.60;99.90
21092;DHT22;10704;42.678;23.288;2023-05-23T03:20:15;10.70;99.90
21092;DHT22;10704;42.678;23.288;2023-05-23T03:22:41;10.80;99.90
21092;DHT22;10704;42.678;23.288;2023-05-23T03:25:10;10.60;99.90
21092;DHT22;10704;42.678;23.288;2023-05-23T03:27:36;10.60;99.90
21092;DHT22;10704;42.678;23.288;2023-05-23T03:30:03;10.70;99.90
21092;DHT22;10704;42.678;23.288;2023-05-23T03:32:29;10.60;99.90
21092;DHT22;10704;42.678;23.288;2023-05-23T03:34:55;10.70;99.90
21092;DHT22;10704;42.678;23.288;2023-05-23T03:37:21;10.80;99.90
21092;DHT22;10704;42.678;23.288;2023-05-23T03:39:47;10.80;99.90
21092;DHT22;10704;42.678;23.288;2023-05-23T03:42:13;10.70;99.90
21092;DHT22;10704;42.678;23.288;2023-05-23T03:44:39;10.70;99.90
21092;DHT22;10704;42.678;23.288;2023-05-23T03:47:06;10.80;99.90
21092;DHT22;10704;42.678;23.288;2023-05-23T03:49:33;10.80;99.90
21092;DHT22;10704;42.678;23.288;2023-05-23T03:52:00;10.90;99.90
21092;DHT22;10704;42.678;23.288;2023-05-23T03:54:27;10.90;99.90
21092;DHT22;10704;42.678;23.288;2023-05-23T03:56:53;10.90;99.90
21092;DHT22;10704;42.678;23.288;2023-05-23T03:59:19;10.90;99.90
21092;DHT22;10704;42.678;23.288;2023-05-23T04:01:45;10.90;99.90
21092;DHT22;10704;42.678;23.288;2023-05-23T04:04:11;10.90;99.90
21092;DHT22;10704;42.678;23.288;2023-05-23T04:06:37;11.00;99.90
21092;DHT22;10704;42.678;23.288;2023-05-23T04:09:03;11.10;99.90
21092;DHT22;10704;42.678;23.288;2023-05-23T04:11:33;11.20;99.90
21092;DHT22;10704;42.678;23.288;2023-05-23T04:14:00;11.20;99.90
21092;DHT22;10704;42.678;23.288;2023-05-23T04:16:26;11.20;99.90
21092;DHT22;10704;42.678;23.288;2023-05-23T04:18:52;11.20;99.90
21092;DHT22;10704;42.678;23.288;2023-05-23T04:21:18;11.10;99.90
21092;DHT22;10704;42.678;23.288;2023-05-23T04:24:03;11.00;99.90
21092;DHT22;10704;42.678;23.288;2023-05-23T04:26:30;11.10;99.90
21092;DHT22;10704;42.678;23.288;2023-05-23T04:28:57;11.10;99.90
21092;DHT22;10704;42.678;23.288;2023-05-23T04:31:23;11.00;99.90
21092;DHT22;10704;42.678;23.288;2023-05-23T04:33:50;10.90;99.90
21092;DHT22;10704;42.678;23.288;2023-05-23T04:36:18;10.90;99.90
21092;DHT22;10704;42.678;23.288;2023-05-23T04:38:49;10.90;99.90
21092;DHT22;10704;42.678;23.288;2023-05-23T04:41:15;10.90;99.90
21092;DHT22;10704;42.678;23.288;2023-05-23T04:43:52;10.90;99.90
21092;DHT22;10704;42.678;23.288;2023-05-23T04:46:36;11.20;99.90
21092;DHT22;10704;42.678;23.288;2023-05-23T04:53:00;11.50;99.90
21092;DHT22;10704;42.678;23.288;2023-05-23T04:55:27;11.40;99.90
21092;DHT22;10704;42.678;23.288;2023-05-23T05:01:41;11.30;99.90
21092;DHT22;10704;42.678;23.288;2023-05-23T05:10:40;11.60;99.90
21092;DHT22;10704;42.678;23.288;2023-05-23T05:13:07;11.60;99.90
21092;DHT22;10704;42.678;23.288;2023-05-23T05:19:29;11.70;99.90
21092;DHT22;10704;42.678;23.288;2023-05-23T05:21:55;11.90;99.90
21092;DHT22;10704;42.678;23.288;2023-05-23T05:28:10;12.00;99.90
21092;DHT22;10704;42.678;23.288;2023-05-23T05:30:40;12.30;99.90
21092;DHT22;10704;42.678;23.288;2023-05-23T05:33:07;12.30;99.90
21092;DHT22;10704;42.678;23.288;2023-05-23T05:35:34;12.50;99.90
21092;DHT22;10704;42.678;23.288;2023-05-23T05:38:01;12.60;99.90
21092;DHT22;10704;42.678;23.288;2023-05-23T05:40:30;12.60;99.90
21092;DHT22;10704;42.678;23.288;2023-05-23T05:46:44;12.70;99.90
21092;DHT22;10704;42.678;23.288;2023-05-23T05:52:59;12.60;99.90
21092;DHT22;10704;42.678;23.288;2023-05-23T05:55:25;12.60;99.90
21092;DHT22;10704;42.678;23.288;2023-05-23T06:01:50;12.80;99.90
21092;DHT22;10704;42.678;23.288;2023-05-23T06:04:16;13.20;99.90
21092;DHT22;10704;42.678;23.288;2023-05-23T06:06:43;13.50;99.90
21092;DHT22;10704;42.678;23.288;2023-05-23T06:09:09;13.50;99.90
21092;DHT22;10704;42.678;23.288;2023-05-23T06:11:35;13.70;99.90
21092;DHT22;10704;42.678;23.288;2023-05-23T06:14:07;13.90;99.90
21092;DHT22;10704;42.678;23.288;2023-05-23T06:16:36;14.00;99.90
21092;DHT22;10704;42.678;23.288;2023-05-23T06:26:37;14.30;99.90
21092;DHT22;10704;42.678;23.288;2023-05-23T06:29:03;14.60;99.90
21092;DHT22;10704;42.678;23.288;2023-05-23T06:38:34;15.10;99.90
21092;DHT22;10704;42.678;23.288;2023-05-23T06:41:00;15.00;99.90
21092;DHT22;10704;42.678;23.288;2023-05-23T06:44:06;15.20;99.90
21092;DHT22;10704;42.678;23.288;2023-05-23T06:46:32;15.50;99.90
21092;DHT22;10704;42.678;23.288;2023-05-23T06:48:58;15.60;99.90
21092;DHT22;10704;42.678;23.288;2023-05-23T06:51:25;15.70;99.90
21092;DHT22;10704;42.678;23.288;2023-05-23T06:53:51;15.50;99.90
21092;DHT22;10704;42.678;23.288;2023-05-23T07:00:05;15.50;99.90
21092;DHT22;10704;42.678;23.288;2023-05-23T07:02:33;15.90;99.90
21092;DHT22;10704;42.678;23.288;2023-05-23T07:05:02;16.30;99.90
21092;DHT22;10704;42.678;23.288;2023-05-23T07:07:45;16.60;99.90
21092;DHT22;10704;42.678;23.288;2023-05-23T07:10:11;16.90;99.90
21092;DHT22;10704;42.678;23.288;2023-05-23T07:12:37;17.10;99.90
21092;DHT22;10704;42.678;23.288;2023-05-23T07:18:51;17.40;99.90
21092;DHT22;10704;42.678;23.288;2023-05-23T07:25:04;17.40;99.90
21092;DHT22;10704;42.678;23.288;2023-05-23T07:27:34;17.60;99.90
21092;DHT22;10704;42.678;23.288;2023-05-23T07:30:00;17.60;99.90
21092;DHT22;10704;42.678;23.288;2023-05-23T07:32:26;18.00;99.90
21092;DHT22;10704;42.678;23.288;2023-05-23T07:34:53;18.40;99.90
21092;DHT22;10704;42.678;23.288;2023-05-23T07:37:20;18.60;99.90
21092;DHT22;10704;42.678;23.288;2023-05-23T07:39:46;18.70;99.90
21092;DHT22;10704;42.678;23.288;2023-05-23T07:46:00;18.90;99.90
21092;DHT22;10704;42.678;23.288;2023-05-23T07:52:13;19.20;99.90
21092;DHT22;10704;42.678;23.288;2023-05-23T07:54:39;19.40;99.90
21092;DHT22;10704;42.678;23.288;2023-05-23T07:57:06;19.70;99.90
21092;DHT22;10704;42.678;23.288;2023-05-23T08:06:48;20.30;99.90
21092;DHT22;10704;42.678;23.288;2023-05-23T08:09:14;20.70;99.90
21092;DHT22;10704;42.678;23.288;2023-05-23T08:15:32;21.40;99.90
21092;DHT22;10704;42.678;23.288;2023-05-23T08:18:07;21.50;99.90
21092;DHT22;10704;42.678;23.288;2023-05-23T08:20:52;21.50;99.90
21092;DHT22;10704;42.678;23.288;2023-05-23T08:23:18;21.90;99.90
21092;DHT22;10704;42.678;23.288;2023-05-23T08:26:07;22.00;99.90
21092;DHT22;10704;42.678;23.288;2023-05-23T08:36:08;22.50;99.90
21092;DHT22;10704;42.678;23.288;2023-05-23T08:38:34;22.90;99.90
21092;DHT22;10704;42.678;23.288;2023-05-23T08:41:23;22.70;99.90
21092;DHT22;10704;42.678;23.288;2023-05-23T08:43:56;22.70;99.90
21092;DHT22;10704;42.678;23.288;2023-05-23T08:46:26;23.10;99.90
21092;DHT22;10704;42.678;23.288;2023-05-23T08:48:54;23.10;99.90
21092;DHT22;10704;42.678;23.288;2023-05-23T08:51:26;23.30;99.90
21092;DHT22;10704;42.678;23.288;2023-05-23T08:53:53;23.50;99.90
21092;DHT22;10704;42.678;23.288;2023-05-23T08:56:23;23.70;99.90
21092;DHT22;10704;42.678;23.288;2023-05-23T08:59:21;24.00;99.90
21092;DHT22;10704;42.678;23.288;2023-05-23T09:01:51;24.20;99.90
21092;DHT22;10704;42.678;23.288;2023-05-23T09:07:29;24.50;99.90
21092;DHT22;10704;42.678;23.288;2023-05-23T09:24:50;26.60;90.40
21092;DHT22;10704;42.678;23.288;2023-05-23T09:27:18;26.90;91.00
21092;DHT22;10704;42.678;23.288;2023-05-23T09:33:47;26.50;83.40
21092;DHT22;10704;42.678;23.288;2023-05-23T09:36:18;25.60;81.70
21092;DHT22;10704;42.678;23.288;2023-05-23T09:38:45;26.60;83.90
21092;DHT22;10704;42.678;23.288;2023-05-23T09:41:12;27.10;78.80
21092;DHT22;10704;42.678;23.288;2023-05-23T09:51:13;26.50;76.20
21092;DHT22;10704;42.678;23.288;2023-05-23T09:57:27;26.70;78.20
21092;DHT22;10704;42.678;23.288;2023-05-23T09:59:55;27.30;73.70
21092;DHT22;10704;42.678;23.288;2023-05-23T10:06:48;27.90;73.10
21092;DHT22;10704;42.678;23.288;2023-05-23T10:09:18;28.70;66.80
21092;DHT22;10704;42.678;23.288;2023-05-23T10:15:04;27.70;66.20
21092;DHT22;10704;42.678;23.288;2023-05-23T10:21:23;28.30;67.80
21092;DHT22;10704;42.678;23.288;2023-05-23T10:23:52;28.20;65.10
21092;DHT22;10704;42.678;23.288;2023-05-23T10:26:18;28.80;65.00
21092;DHT22;10704;42.678;23.288;2023-05-23T10:36:32;29.60;62.50
21092;DHT22;10704;42.678;23.288;2023-05-23T10:39:13;30.20;59.50
21092;DHT22;10704;42.678;23.288;2023-05-23T10:48:55;28.10;59.50
21092;DHT22;10704;42.678;23.288;2023-05-23T10:51:23;28.20;62.80
21092;DHT22;10704;42.678;23.288;2023-05-23T10:57:37;29.10;60.70
21092;DHT22;10704;42.678;23.288;2023-05-23T11:00:03;29.50;60.20
21092;DHT22;10704;42.678;23.288;2023-05-23T11:03:03;29.80;58.70
21092;DHT22;10704;42.678;23.288;2023-05-23T11:05:29;30.30;58.10
21092;DHT22;10704;42.678;23.288;2023-05-23T11:15:41;29.40;59.10
21092;DHT22;10704;42.678;23.288;2023-05-23T11:18:07;28.70;58.70
21092;DHT22;10704;42.678;23.288;2023-05-23T11:24:20;28.10;57.60
21092;DHT22;10704;42.678;23.288;2023-05-23T11:26:57;27.70;58.60
21092;DHT22;10704;42.678;23.288;2023-05-23T11:32:31;27.40;59.60
21092;DHT22;10704;42.678;23.288;2023-05-23T11:35:08;28.50;58.40
21092;DHT22;10704;42.678;23.288;2023-05-23T11:37:35;28.70;57.40
21092;DHT22;10704;42.678;23.288;2023-05-23T11:40:25;28.30;57.90
21092;DHT22;10704;42.678;23.288;2023-05-23T11:42:52;28.50;59.30
21092;DHT22;10704;42.678;23.288;2023-05-23T11:45:21;28.80;58.50
21092;DHT22;10704;42.678;23.288;2023-05-23T11:51:35;28.90;57.30
21092;DHT22;10704;42.678;23.288;2023-05-23T11:54:21;29.40;57.10
21092;DHT22;10704;42.678;23.288;2023-05-23T11:56:47;29.40;56.30
21092;DHT22;10704;42.678;23.288;2023-05-23T11:59:14;29.40;57.20
21092;DHT22;10704;42.678;23.288;2023-05-23T12:02:02;29.20;57.30
21092;DHT22;10704;42.678;23.288;2023-05-23T12:04:28;29.00;57.00
21092;DHT22;10704;42.678;23.288;2023-05-23T12:06:54;29.40;56.90
21092;DHT22;10704;42.678;23.288;2023-05-23T12:09:20;29.60;57.00
21092;DHT22;10704;42.678;23.288;2023-05-23T12:11:48;29.60;55.90
21092;DHT22;10704;42.678;23.288;2023-05-23T12:14:17;28.50;56.90
21092;DHT22;10704;42.678;23.288;2023-05-23T12:16:44;27.90;57.60
21092;DHT22;10704;42.678;23.288;2023-05-23T12:19:11;27.50;59.00
21092;DHT22;10704;42.678;23.288;2023-05-23T12:38:27;27.70;59.10
21092;DHT22;10704;42.678;23.288;2023-05-23T12:47:44;27.60;57.30
21092;DHT22;10704;42.678;23.288;2023-05-23T12:50:10;28.30;57.90
21092;DHT22;10704;42.678;23.288;2023-05-23T12:52:36;29.00;57.50
21092;DHT22;10704;42.678;23.288;2023-05-23T12:55:03;29.40;57.10
21092;DHT22;10704;42.678;23.288;2023-05-23T12:57:30;29.50;56.50
21092;DHT22;10704;42.678;23.288;2023-05-23T12:59:56;28.70;56.00
21092;DHT22;10704;42.678;23.288;2023-05-23T13:02:23;28.60;55.00
21092;DHT22;10704;42.678;23.288;2023-05-23T13:04:49;28.20;54.10
21092;DHT22;10704;42.678;23.288;2023-05-23T13:14:30;29.40;53.60
21092;DHT22;10704;42.678;23.288;2023-05-23T13:16:56;29.60;53.00
21092;DHT22;10704;42.678;23.288;2023-05-23T13:19:22;29.30;52.90
21092;DHT22;10704;42.678;23.288;2023-05-23T13:21:47;28.50;53.70
21092;DHT22;10704;42.678;23.288;2023-05-23T13:28:02;28.80;53.20
21092;DHT22;10704;42.678;23.288;2023-05-23T13:30:28;28.40;52.60
21092;DHT22;10704;42.678;23.288;2023-05-23T13:32:54;28.20;52.80
21092;DHT22;10704;42.678;23.288;2023-05-23T13:35:20;28.40;53.50
21092;DHT22;10704;42.678;23.288;2023-05-23T13:37:45;28.20;53.90
21092;DHT22;10704;42.678;23.288;2023-05-23T13:40:16;27.70;54.60
21092;DHT22;10704;42.678;23.288;2023-05-23T13:46:30;26.60;56.60
21092;DHT22;10704;42.678;23.288;2023-05-23T13:48:56;26.50;56.90
21092;DHT22;10704;42.678;23.288;2023-05-23T13:51:21;26.60;56.50
21092;DHT22;10704;42.678;23.288;2023-05-23T13:57:35;27.60;55.50
21092;DHT22;10704;42.678;23.288;2023-05-23T14:00:01;28.70;53.30
21092;DHT22;10704;42.678;23.288;2023-05-23T14:10:05;28.90;52.80
21092;DHT22;10704;42.678;23.288;2023-05-23T14:12:31;28.40;52.70
21092;DHT22;10704;42.678;23.288;2023-05-23T14:14:57;28.40;53.30
21092;DHT22;10704;42.678;23.288;2023-05-23T14:17:23;28.10;52.90
21092;DHT22;10704;42.678;23.288;2023-05-23T14:27:23;27.10;54.80
21092;DHT22;10704;42.678;23.288;2023-05-23T14:29:49;26.90;55.00
21092;DHT22;10704;42.678;23.288;2023-05-23T14:32:15;26.70;55.20
21092;DHT22;10704;42.678;23.288;2023-05-23T14:34:41;26.60;56.70
21092;DHT22;10704;42.678;23.288;2023-05-23T14:37:06;25.70;61.70
21092;DHT22;10704;42.678;23.288;2023-05-23T14:39:33;25.40;64.60
21092;DHT22;10704;42.678;23.288;2023-05-23T14:41:59;25.10;66.20
21092;DHT22;10704;42.678;23.288;2023-05-23T14:44:54;25.00;66.10
21092;DHT22;10704;42.678;23.288;2023-05-23T14:47:20;25.30;66.50
21092;DHT22;10704;42.678;23.288;2023-05-23T14:50:05;26.30;64.30
21092;DHT22;10704;42.678;23.288;2023-05-23T14:52:32;27.10;61.40
21092;DHT22;10704;42.678;23.288;2023-05-23T14:54:57;27.20;58.90
21092;DHT22;10704;42.678;23.288;2023-05-23T14:57:23;27.00;59.30
21092;DHT22;10704;42.678;23.288;2023-05-23T14:59:49;27.00;58.80
21092;DHT22;10704;42.678;23.288;2023-05-23T15:02:15;27.40;58.30
21092;DHT22;10704;42.678;23.288;2023-05-23T15:04:41;27.60;58.50
21092;DHT22;10704;42.678;23.288;2023-05-23T15:07:07;28.20;57.40
21092;DHT22;10704;42.678;23.288;2023-05-23T15:13:20;28.30;55.70
21092;DHT22;10704;42.678;23.288;2023-05-23T15:19:34;29.30;53.40
21092;DHT22;10704;42.678;23.288;2023-05-23T15:22:01;29.30;54.10
21092;DHT22;10704;42.678;23.288;2023-05-23T15:24:27;29.70;54.20
21092;DHT22;10704;42.678;23.288;2023-05-23T15:26:53;29.60;54.10
21092;DHT22;10704;42.678;23.288;2023-05-23T15:29:19;28.70;55.20
21092;DHT22;10704;42.678;23.288;2023-05-23T15:31:45;28.60;55.50
21092;DHT22;10704;42.678;23.288;2023-05-23T15:37:28;28.50;56.20
21092;DHT22;10704;42.678;23.288;2023-05-23T15:39:55;28.20;55.70
21092;DHT22;10704;42.678;23.288;2023-05-23T15:57:04;28.20;57.80
21092;DHT22;10704;42.678;23.288;2023-05-23T15:59:30;28.00;58.30
21092;DHT22;10704;42.678;23.288;2023-05-23T16:01:57;27.80;59.00
21092;DHT22;10704;42.678;23.288;2023-05-23T16:04:23;27.30;58.70
21092;DHT22;10704;42.678;23.288;2023-05-23T16:06:49;27.30;58.70
21092;DHT22;10704;42.678;23.288;2023-05-23T16:09:15;27.00;58.80
21092;DHT22;10704;42.678;23.288;2023-05-23T16:16:06;27.70;58.10
21092;DHT22;10704;42.678;23.288;2023-05-23T16:18:32;27.30;59.10
21092;DHT22;10704;42.678;23.288;2023-05-23T16:20:58;26.70;60.70
21092;DHT22;10704;42.678;23.288;2023-05-23T16:23:24;26.50;61.40
21092;DHT22;10704;42.678;23.288;2023-05-23T16:36:31;26.30;62.20
21092;DHT22;10704;42.678;23.288;2023-05-23T16:38:57;26.70;62.40
21092;DHT22;10704;42.678;23.288;2023-05-23T16:45:23;26.10;61.80
21092;DHT22;10704;42.678;23.288;2023-05-23T16:47:49;25.70;63.60
21092;DHT22;10704;42.678;23.288;2023-05-23T16:50:15;25.60;63.90
21092;DHT22;10704;42.678;23.288;2023-05-23T16:52:41;25.60;64.30
21092;DHT22;10704;42.678;23.288;2023-05-23T16:55:07;25.30;64.80
21092;DHT22;10704;42.678;23.288;2023-05-23T16:57:33;25.20;64.70
21092;DHT22;10704;42.678;23.288;2023-05-23T16:59:59;25.40;65.30
21092;DHT22;10704;42.678;23.288;2023-05-23T17:02:25;25.20;65.10
21092;DHT22;10704;42.678;23.288;2023-05-23T17:04:51;25.00;65.50
21092;DHT22;10704;42.678;23.288;2023-05-23T17:07:16;25.10;65.80
21092;DHT22;10704;42.678;23.288;2023-05-23T17:09:42;25.00;65.90
21092;DHT22;10704;42.678;23.288;2023-05-23T17:12:08;24.90;66.40
21092;DHT22;10704;42.678;23.288;2023-05-23T17:14:34;24.80;66.30
21092;DHT22;10704;42.678;23.288;2023-05-23T17:17:00;24.50;67.60
21092;DHT22;10704;42.678;23.288;2023-05-23T17:19:28;24.30;68.70
21092;DHT22;10704;42.678;23.288;2023-05-23T17:21:54;23.90;70.40
21092;DHT22;10704;42.678;23.288;2023-05-23T17:28:08;23.20;73.50
21092;DHT22;10704;42.678;23.288;2023-05-23T17:30:34;23.00;75.10
21092;DHT22;10704;42.678;23.288;2023-05-23T17:33:00;22.60;76.10
21092;DHT22;10704;42.678;23.288;2023-05-23T17:35:26;22.50;77.20
21092;DHT22;10704;42.678;23.288;2023-05-23T17:37:51;22.30;78.00
21092;DHT22;10704;42.678;23.288;2023-05-23T17:40:22;22.10;79.10
21092;DHT22;10704;42.678;23.288;2023-05-23T17:46:36;21.70;81.10
21092;DHT22;10704;42.678;23.288;2023-05-23T17:49:02;21.50;82.70
21092;DHT22;10704;42.678;23.288;2023-05-23T17:51:28;21.40;83.40
21092;DHT22;10704;42.678;23.288;2023-05-23T17:53:54;21.10;84.30
21092;DHT22;10704;42.678;23.288;2023-05-23T17:56:20;21.20;85.40
21092;DHT22;10704;42.678;23.288;2023-05-23T18:03:00;21.10;82.00
21092;DHT22;10704;42.678;23.288;2023-05-23T18:05:26;21.00;76.80
21092;DHT22;10704;42.678;23.288;2023-05-23T18:07:52;21.00;76.40
21092;DHT22;10704;42.678;23.288;2023-05-23T18:10:18;20.90;76.10
21092;DHT22;10704;42.678;23.288;2023-05-23T18:12:44;21.00;76.10
21092;DHT22;10704;42.678;23.288;2023-05-23T18:18:58;20.80;76.10
21092;DHT22;10704;42.678;23.288;2023-05-23T18:21:25;20.70;78.30
21092;DHT22;10704;42.678;23.288;2023-05-23T18:23:51;20.50;81.80
21092;DHT22;10704;42.678;23.288;2023-05-23T18:30:11;20.00;88.80
21092;DHT22;10704;42.678;23.288;2023-05-23T18:32:42;19.80;90.70
21092;DHT22;10704;42.678;23.288;2023-05-23T18:35:08;19.70;91.80
21092;DHT22;10704;42.678;23.288;2023-05-23T18:37:34;19.60;93.00
21092;DHT22;10704;42.678;23.288;2023-05-23T18:40:01;19.50;93.70
21092;DHT22;10704;42.678;23.288;2023-05-23T18:42:28;19.40;94.60
21092;DHT22;10704;42.678;23.288;2023-05-23T18:44:54;19.30;95.40
21092;DHT22;10704;42.678;23.288;2023-05-23T18:47:20;19.20;98.40
21092;DHT22;10704;42.678;23.288;2023-05-23T18:49:46;19.00;99.10
21092;DHT22;10704;42.678;23.288;2023-05-23T18:52:13;19.00;99.90
21092;DHT22;10704;42.678;23.288;2023-05-23T18:54:39;18.80;99.90
21092;DHT22;10704;42.678;23.288;2023-05-23T18:57:07;18.60;99.90
21092;DHT22;10704;42.678;23.288;2023-05-23T18:59:33;18.60;99.90
21092;DHT22;10704;42.678;23.288;2023-05-23T19:01:59;18.60;99.90
21092;DHT22;10704;42.678;23.288;2023-05-23T19:04:25;18.30;99.90
21092;DHT22;10704;42.678;23.288;2023-05-23T19:06:52;18.30;99.90
21092;DHT22;10704;42.678;23.288;2023-05-23T19:09:18;18.20;99.90
21092;DHT22;10704;42.678;23.288;2023-05-23T19:11:44;18.20;99.90
21092;DHT22;10704;42.678;23.288;2023-05-23T19:14:10;18.20;99.90
21092;DHT22;10704;42.678;23.288;2023-05-23T19:16:40;18.10;99.90
21092;DHT22;10704;42.678;23.288;2023-05-23T19:19:06;18.00;99.90
21092;DHT22;10704;42.678;23.288;2023-05-23T19:28:13;17.50;99.90
21092;DHT22;10704;42.678;23.288;2023-05-23T19:30:42;17.40;99.90
21092;DHT22;10704;42.678;23.288;2023-05-23T19:33:08;17.20;99.90
21092;DHT22;10704;42.678;23.288;2023-05-23T19:35:35;17.10;99.90
21092;DHT22;10704;42.678;23.288;2023-05-23T19:38:01;17.00;99.90
21092;DHT22;10704;42.678;23.288;2023-05-23T19:40:28;17.00;99.90
21092;DHT22;10704;42.678;23.288;2023-05-23T19:42:54;17.00;99.90
21092;DHT22;10704;42.678;23.288;2023-05-23T19:45:20;17.10;99.90
21092;DHT22;10704;42.678;23.288;2023-05-23T19:47:46;17.00;99.90
21092;DHT22;10704;42.678;23.288;2023-05-23T19:50:12;16.90;99.90
21092;DHT22;10704;42.678;23.288;2023-05-23T19:52:40;16.80;99.90
21092;DHT22;10704;42.678;23.288;2023-05-23T19:55:07;16.80;99.90
21092;DHT22;10704;42.678;23.288;2023-05-23T19:57:33;16.80;99.90
21092;DHT22;10704;42.678;23.288;2023-05-23T19:59:59;16.80;99.90
21092;DHT22;10704;42.678;23.288;2023-05-23T20:02:25;16.70;99.90
21092;DHT22;10704;42.678;23.288;2023-05-23T20:04:52;16.60;99.90
21092;DHT22;10704;42.678;23.288;2023-05-23T20:07:18;16.50;99.90
21092;DHT22;10704;42.678;23.288;2023-05-23T20:09:44;16.50;99.90
21092;DHT22;10704;42.678;23.288;2023-05-23T20:12:10;16.50;99.90
21092;DHT22;10704;42.678;23.288;2023-05-23T20:14:36;16.50;99.90
21092;DHT22;10704;42.678;23.288;2023-05-23T20:17:02;16.40;99.90
21092;DHT22;10704;42.678;23.288;2023-05-23T20:19:28;16.40;99.90
21092;DHT22;10704;42.678;23.288;2023-05-23T20:21:54;16.20;99.90
21092;DHT22;10704;42.678;23.288;2023-05-23T20:24:21;16.20;99.90
21092;DHT22;10704;42.678;23.288;2023-05-23T20:26:47;16.20;99.90
21092;DHT22;10704;42.678;23.288;2023-05-23T20:29:13;16.10;99.90
21092;DHT22;10704;42.678;23.288;2023-05-23T20:31:39;15.90;99.90
21092;DHT22;10704;42.678;23.288;2023-05-23T20:34:05;15.80;99.90
21092;DHT22;10704;42.678;23.288;2023-05-23T20:36:31;15.70;99.90
21092;DHT22;10704;42.678;23.288;2023-05-23T20:38:57;15.70;99.90
21092;DHT22;10704;42.678;23.288;2023-05-23T20:41:23;15.60;99.90
21092;DHT22;10704;42.678;23.288;2023-05-23T20:43:51;15.60;99.90
21092;DHT22;10704;42.678;23.288;2023-05-23T20:46:17;15.50;99.90
21092;DHT22;10704;42.678;23.288;2023-05-23T20:48:43;15.40;99.90
21092;DHT22;10704;42.678;23.288;2023-05-23T20:51:09;15.40;99.90
21092;DHT22;10704;42.678;23.288;2023-05-23T20:53:35;15.30;99.90
21092;DHT22;10704;42.678;23.288;2023-05-23T20:56:02;15.30;99.90
21092;DHT22;10704;42.678;23.288;2023-05-23T20:58:28;15.40;99.90
21092;DHT22;10704;42.678;23.288;2023-05-23T21:00:54;15.40;99.90
21092;DHT22;10704;42.678;23.288;2023-05-23T21:03:20;15.40;99.90